Terminal Aerodrome Forecast
Issued by NWS

Home | Current Version | Previous Version | Text Only | Print | Product List | Glossary On
Versions: 1 2 3 4 5 6 7 8 9 10 11 12 13 14 15 16 17
000
FTUS46 KSGX 280657 AAA
TAFSNA
TAF AMD
KSNA 280657Z 2807/2906 VRB03KT P6SM SCT017
      TEMPO 2807/2810 BKN014
     FM281000 VRB03KT P6SM OVC014
     FM281700 VRB05KT P6SM SCT016
     FM282000 21011KT P6SM SKC
     FM290200 VRB05KT P6SM FEW013=

USA.gov is the U.S. government's official web portal to all federal, state and local government web resources and services.